Terminal Aerodrome Forecast
Issued by NWS

Home | Current Version | Previous Version | Text Only | Print | Product List | Glossary On
Versions: 1 2 3 4 5 6 7 8 9 10 11 12 13 14 15 16
000
FTUS42 KMLB 011700
TAFSUA
TAF
KSUA 011737Z 0118/0218 27005KT P6SM VCTS SCT025CB BKN030
      TEMPO 0118/0122 3SM SHRA BKN020
     FM012300 VRB03KT P6SM FEW025 SCT100 SCT250=

USA.gov is the U.S. government's official web portal to all federal, state and local government web resources and services.